Accueil
METAR-TAF:

METAR-TAF

Aéroports :

Saint-Moritz, Suisse

Aéroport de Samedan-Engadin

latitude: 46-32-03N, longitude: 9-53-03E, altitude: 1707 m

Observation

Le bulletin a été fait il y a 13 minutes, à 02:20 UTC
Vent 4 kt de sud, variant entre sud/sud-est et sud-ouest
Température 1°C
Humidité 80%
Pression 1011 hPa
Visibilité 10 km ou plus
Quelques nuages à une hauteur de 4400 ft
Ciel couvert à une hauteur de 5000 ft

METAR: LSZS 010220Z AUTO 18004KT 150V220 9999 FEW044 OVC050 01/M02 Q1011

Heure: 04:33 (02:33 UTC)

Prévision

Le bulletin a été fait il y a 12 heures et 8 minutes, à 14:25 UTC
Prévision valable du 30 à 15 UTC au 30 à 24 UTC
Vent 8 kt de sud-ouest
Visibilité 10 km ou plus
Quelques nuages à une hauteur de 3000 ft
Probabilité 40% :
Temporairement
du 30 à 15 UTC au 30 à 18 UTC
Vent 15 kt de sud-ouest avec des rafales jusqu'à 25 kt

TAF: LSZS 301425Z 3015/3024 22008KT 9999 FEW030 TX08/3016Z PROB40 TEMPO 3015/3018 22015G25KT

Observations et prévisions météorologiques de plus de 4000 aéroports (messages METAR et TAF).

Les stations disponibles sont représentées par des disques jaunes et rouges sur la carte.

Passer la souris dessus pour voir le nom de la station.

Cliquer dessus pour voir les observations et prévisions météorologiques.

Pour changer de carte: cliquez sur les boutons verts avec une croix noire pour zoomer, sur le bouton vert avec un tiret pour effectuer un zoom arrière, ou sur les flèches vertes pour les cartes adjacentes.


METAR-TAF: